CheckWX is a tool to help pilots better visualize weather data.  It is not intended as a substitute for an official pre-flight weather briefing.

14:20:13 UTC

CYZY METAR
Mackenzie Airport
Mackenzie, Canada
Current

1 hour ago

CYZY 161300Z AUTO 14003KT 060V160 9SM OVC110 10/08 A2993 RMK SLP147
Observed
Jul-16 @ 13:00 UTC
Wind
  • 140° at 3 KTS
Visibility
9 SM
Flight Rules
VFR
Cloud Levels
  • Overcast at 11,000' AGL
Temperature
10°C / 50°F
Dewpoint
C / 46°F
Humidity
88%
Altimeter
29.93" Hg
Pressure
1013.52 hPa
Previous

2 hours ago

CYZY 161200Z AUTO 14005KT 9SM FEW070 09/08 A2993 RMK PCPN MISG SLP147
Observed
Jul-16 @ 12:00 UTC
Wind
  • 140° at 5 KTS
Visibility
9 SM
Flight Rules
VFR
Cloud Levels
  • Few at 7,000' AGL
Temperature
C / 48°F
Dewpoint
C / 46°F
Humidity
94%
Altimeter
29.93" Hg
Pressure
1013.52 hPa
Previous

3 hours ago

CYZY 161100Z AUTO 13003KT 9SM 09/09 A2993 RMK CLD MISG SLP145
Observed
Jul-16 @ 11:00 UTC
Wind
  • 130° at 3 KTS
Visibility
9 SM
Temperature
C / 48°F
Dewpoint
C / 48°F
Humidity
100%
Altimeter
29.93" Hg
Pressure
1013.52 hPa